<?xml version="1.0" encoding="UTF-8" standalone="no" ?>
<gpx xmlns="http://www.topografix.com/GPX/1/1" xmlns:xsi="http://www.w3.org/2001/XMLSchema-instance" xsi:schemaLocation="http://www.topografix.com/GPX/1/1 http://www.topografix.com/GPX/1/1/gpx.xsd" version="1.1" creator="VisuGPX - https://www.visugpx.com">
  <metadata>
    <name>Ravin des Arcs</name>
    <desc><![CDATA[2015-06 - Pont de Masclac - GR60 Sud - Ravin des Arcs - GR60 vers Roc Rouge - Grand Bois de la Garde

[b]album[/b] : [url]https://goo.gl/photos/ng2No2cRnsLXWZXe6[/url]
[img]https://2.bp.blogspot.com/-KcsqjdyQ7vU/WNQtv_A7xZI/AAAAAAAARUA/IwBXmbn3ZAQCzF2vLH6WsvDEz0RHk6odACLcB/s1600/2015-06_ravin-arcs_photos_i.JPG[/img]
[b]Idées de randonnées dans la même région[/b]
Parcours : [url]https://www.visugpx.com/membres/24856/causses/garrigues-montpellier/[/url]
Photos : [url]https://jcvertygo.blogspot.com/p/nord-montpellier.html[/url]]]></desc>
  </metadata>
  <trk>
    <name><![CDATA[Ravin des Arcs_1]]></name>
    <trkseg>
      <trkpt lat="43.81208" lon="3.74194">
        <ele>166</ele>
        <time>2015-06-06T11:14:02Z</time>
      </trkpt>
      <trkpt lat="43.81211" lon="3.74193">
        <ele>166</ele>
        <time>2015-06-06T11:14:07Z</time>
      </trkpt>
      <trkpt lat="43.81212" lon="3.74195">
        <ele>166</ele>
        <time>2015-06-06T11:14:12Z</time>
      </trkpt>
      <trkpt lat="43.81214" lon="3.74195">
        <ele>166</ele>
        <time>2015-06-06T11:14:17Z</time>
      </trkpt>
      <trkpt lat="43.81215" lon="3.74194">
        <ele>166</ele>
        <time>2015-06-06T11:14:22Z</time>
      </trkpt>
      <trkpt lat="43.81223" lon="3.74194">
        <ele>171.61129156105</ele>
        <time>2015-06-06T11:14:39Z</time>
      </trkpt>
      <trkpt lat="43.81225" lon="3.74194">
        <ele>171.61129156105</ele>
        <time>2015-06-06T11:14:42Z</time>
      </trkpt>
      <trkpt lat="43.81231" lon="3.74189">
        <ele>172.55484558715</ele>
        <time>2015-06-06T11:14:47Z</time>
      </trkpt>
      <trkpt lat="43.81234" lon="3.74188">
        <ele>172.55484558715</ele>
        <time>2015-06-06T11:14:53Z</time>
      </trkpt>
      <trkpt lat="43.81255" lon="3.7418">
        <ele>173.12863946991</ele>
        <time>2015-06-06T11:15:17Z</time>
      </trkpt>
      <trkpt lat="43.81257" lon="3.74178">
        <ele>173.12863946991</ele>
        <time>2015-06-06T11:15:22Z</time>
      </trkpt>
      <trkpt lat="43.81261" lon="3.74179">
        <ele>173.12863946991</ele>
        <time>2015-06-06T11:15:27Z</time>
      </trkpt>
      <trkpt lat="43.81264" lon="3.74178">
        <ele>173.12863946991</ele>
        <time>2015-06-06T11:15:32Z</time>
      </trkpt>
      <trkpt lat="43.81267" lon="3.74173">
        <ele>173.81283285028</ele>
        <time>2015-06-06T11:15:37Z</time>
      </trkpt>
      <trkpt lat="43.8127" lon="3.74171">
        <ele>173.81283285028</ele>
        <time>2015-06-06T11:15:42Z</time>
      </trkpt>
      <trkpt lat="43.81274" lon="3.74168">
        <ele>173.81283285028</ele>
        <time>2015-06-06T11:15:47Z</time>
      </trkpt>
      <trkpt lat="43.81278" lon="3.74165">
        <ele>174.61565096747</ele>
        <time>2015-06-06T11:15:52Z</time>
      </trkpt>
      <trkpt lat="43.81282" lon="3.74161">
        <ele>174.61565096747</ele>
        <time>2015-06-06T11:15:57Z</time>
      </trkpt>
      <trkpt lat="43.81286" lon="3.74158">
        <ele>174.61565096747</ele>
        <time>2015-06-06T11:16:02Z</time>
      </trkpt>
      <trkpt lat="43.81285" lon="3.74154">
        <ele>175.44463887017</ele>
        <time>2015-06-06T11:16:07Z</time>
      </trkpt>
      <trkpt lat="43.81287" lon="3.7415">
        <ele>175.44463887017</ele>
        <time>2015-06-06T11:16:12Z</time>
      </trkpt>
      <trkpt lat="43.81291" lon="3.74148">
        <ele>175.44463887017</ele>
        <time>2015-06-06T11:16:17Z</time>
      </trkpt>
      <trkpt lat="43.81296" lon="3.74148">
        <ele>176.28702938817</ele>
        <time>2015-06-06T11:16:22Z</time>
      </trkpt>
      <trkpt lat="43.81301" lon="3.74143">
        <ele>176.28702938817</ele>
        <time>2015-06-06T11:16:27Z</time>
      </trkpt>
      <trkpt lat="43.81306" lon="3.74143">
        <ele>177.05570932215</ele>
        <time>2015-06-06T11:16:32Z</time>
      </trkpt>
      <trkpt lat="43.81311" lon="3.74141">
        <ele>177.05570932215</ele>
        <time>2015-06-06T11:16:37Z</time>
      </trkpt>
      <trkpt lat="43.81316" lon="3.74138">
        <ele>177.73885964072</ele>
        <time>2015-06-06T11:16:42Z</time>
      </trkpt>
      <trkpt lat="43.81322" lon="3.74136">
        <ele>177.73885964072</ele>
        <time>2015-06-06T11:16:47Z</time>
      </trkpt>
      <trkpt lat="43.81327" lon="3.74134">
        <ele>178.36590614424</ele>
        <time>2015-06-06T11:16:52Z</time>
      </trkpt>
      <trkpt lat="43.81331" lon="3.74132">
        <ele>178.36590614424</ele>
        <time>2015-06-06T11:16:57Z</time>
      </trkpt>
      <trkpt lat="43.81335" lon="3.74128">
        <ele>178.92048460791</ele>
        <time>2015-06-06T11:17:02Z</time>
      </trkpt>
      <trkpt lat="43.81338" lon="3.74122">
        <ele>178.92048460791</ele>
        <time>2015-06-06T11:17:07Z</time>
      </trkpt>
      <trkpt lat="43.81341" lon="3.74119">
        <ele>178.92048460791</ele>
        <time>2015-06-06T11:17:12Z</time>
      </trkpt>
      <trkpt lat="43.81346" lon="3.74114">
        <ele>179.56031591574</ele>
        <time>2015-06-06T11:17:17Z</time>
      </trkpt>
      <trkpt lat="43.81352" lon="3.74112">
        <ele>179.56031591574</ele>
        <time>2015-06-06T11:17:22Z</time>
      </trkpt>
      <trkpt lat="43.81359" lon="3.74111">
        <ele>180.19969501851</ele>
        <time>2015-06-06T11:17:27Z</time>
      </trkpt>
      <trkpt lat="43.81364" lon="3.74109">
        <ele>180.19969501851</ele>
        <time>2015-06-06T11:17:32Z</time>
      </trkpt>
      <trkpt lat="43.81369" lon="3.74107">
        <ele>180.81106968615</ele>
        <time>2015-06-06T11:17:37Z</time>
      </trkpt>
      <trkpt lat="43.81375" lon="3.74107">
        <ele>180.81106968615</ele>
        <time>2015-06-06T11:17:42Z</time>
      </trkpt>
      <trkpt lat="43.81379" lon="3.74108">
        <ele>181.50259177341</ele>
        <time>2015-06-06T11:17:47Z</time>
      </trkpt>
      <trkpt lat="43.81404" lon="3.7408">
        <ele>182.32072399856</ele>
        <time>2015-06-06T11:18:37Z</time>
      </trkpt>
      <trkpt lat="43.81403" lon="3.74074">
        <ele>182.32072399856</ele>
        <time>2015-06-06T11:18:47Z</time>
      </trkpt>
      <trkpt lat="43.81403" lon="3.74067">
        <ele>182.76548509029</ele>
        <time>2015-06-06T11:18:52Z</time>
      </trkpt>
      <trkpt lat="43.81401" lon="3.74061">
        <ele>182.76548509029</ele>
        <time>2015-06-06T11:18:57Z</time>
      </trkpt>
      <trkpt lat="43.814" lon="3.74053">
        <ele>183.15635104508</ele>
        <time>2015-06-06T11:19:02Z</time>
      </trkpt>
      <trkpt lat="43.81399" lon="3.74046">
        <ele>183.15635104508</ele>
        <time>2015-06-06T11:19:07Z</time>
      </trkpt>
      <trkpt lat="43.81397" lon="3.7404">
        <ele>183.50389024603</ele>
        <time>2015-06-06T11:19:12Z</time>
      </trkpt>
      <trkpt lat="43.81395" lon="3.74038">
        <ele>183.50389024603</ele>
        <time>2015-06-06T11:19:17Z</time>
      </trkpt>
      <trkpt lat="43.81392" lon="3.74034">
        <ele>183.50389024603</ele>
        <time>2015-06-06T11:19:22Z</time>
      </trkpt>
      <trkpt lat="43.81388" lon="3.7403">
        <ele>183.86386537819</ele>
        <time>2015-06-06T11:19:27Z</time>
      </trkpt>
      <trkpt lat="43.81387" lon="3.7403">
        <ele>183.86386537819</ele>
        <time>2015-06-06T11:19:32Z</time>
      </trkpt>
      <trkpt lat="43.81384" lon="3.74023">
        <ele>183.86386537819</ele>
        <time>2015-06-06T11:19:37Z</time>
      </trkpt>
      <trkpt lat="43.81383" lon="3.74021">
        <ele>183.86386537819</ele>
        <time>2015-06-06T11:19:42Z</time>
      </trkpt>
      <trkpt lat="43.81385" lon="3.74018">
        <ele>184.42301876164</ele>
        <time>2015-06-06T11:19:47Z</time>
      </trkpt>
      <trkpt lat="43.81385" lon="3.7401">
        <ele>184.42301876164</ele>
        <time>2015-06-06T11:19:52Z</time>
      </trkpt>
      <trkpt lat="43.81386" lon="3.74005">
        <ele>184.97719589499</ele>
        <time>2015-06-06T11:19:57Z</time>
      </trkpt>
      <trkpt lat="43.81386" lon="3.74005">
        <ele>184.97719589499</ele>
        <time>2015-06-06T11:20:02Z</time>
      </trkpt>
      <trkpt lat="43.81386" lon="3.74002">
        <ele>184.97719589499</ele>
        <time>2015-06-06T11:20:12Z</time>
      </trkpt>
      <trkpt lat="43.81406" lon="3.73995">
        <ele>185.6326646125</ele>
        <time>2015-06-06T11:20:37Z</time>
      </trkpt>
      <trkpt lat="43.81407" lon="3.73993">
        <ele>185.6326646125</ele>
        <time>2015-06-06T11:20:42Z</time>
      </trkpt>
      <trkpt lat="43.81408" lon="3.73991">
        <ele>185.6326646125</ele>
        <time>2015-06-06T11:20:47Z</time>
      </trkpt>
      <trkpt lat="43.814" lon="3.73933">
        <ele>186.14205333441</ele>
        <time>2015-06-06T11:21:37Z</time>
      </trkpt>
      <trkpt lat="43.81402" lon="3.73931">
        <ele>186.14205333441</ele>
        <time>2015-06-06T11:21:43Z</time>
      </trkpt>
      <trkpt lat="43.81411" lon="3.73868">
        <ele>186.68176195417</ele>
        <time>2015-06-06T11:22:37Z</time>
      </trkpt>
      <trkpt lat="43.81411" lon="3.73865">
        <ele>186.68176195417</ele>
        <time>2015-06-06T11:22:42Z</time>
      </trkpt>
      <trkpt lat="43.81413" lon="3.73863">
        <ele>186.68176195417</ele>
        <time>2015-06-06T11:22:54Z</time>
      </trkpt>
      <trkpt lat="43.81407" lon="3.73832">
        <ele>187.37810060393</ele>
        <time>2015-06-06T11:23:22Z</time>
      </trkpt>
      <trkpt lat="43.81404" lon="3.73826">
        <ele>187.37810060393</ele>
        <time>2015-06-06T11:23:27Z</time>
      </trkpt>
      <trkpt lat="43.81394" lon="3.73828">
        <ele>188.0297411085</ele>
        <time>2015-06-06T11:23:37Z</time>
      </trkpt>
      <trkpt lat="43.81387" lon="3.73826">
        <ele>188.0297411085</ele>
        <time>2015-06-06T11:23:52Z</time>
      </trkpt>
      <trkpt lat="43.81357" lon="3.73799">
        <ele>189.10644828225</ele>
        <time>2015-06-06T11:24:42Z</time>
      </trkpt>
      <trkpt lat="43.81373" lon="3.73746">
        <ele>191.35361382086</ele>
        <time>2015-06-06T11:25:42Z</time>
      </trkpt>
      <trkpt lat="43.81376" lon="3.73741">
        <ele>191.35361382086</ele>
        <time>2015-06-06T11:25:47Z</time>
      </trkpt>
      <trkpt lat="43.81378" lon="3.73736">
        <ele>191.35361382086</ele>
        <time>2015-06-06T11:25:52Z</time>
      </trkpt>
      <trkpt lat="43.81382" lon="3.73729">
        <ele>193.8743026239</ele>
        <time>2015-06-06T11:26:04Z</time>
      </trkpt>
      <trkpt lat="43.81414" lon="3.73685">
        <ele>196.95137389017</ele>
        <time>2015-06-06T11:26:42Z</time>
      </trkpt>
      <trkpt lat="43.81417" lon="3.73613">
        <ele>200.99883343317</ele>
        <time>2015-06-06T11:27:42Z</time>
      </trkpt>
      <trkpt lat="43.81414" lon="3.73582">
        <ele>205.11128262666</ele>
        <time>2015-06-06T11:28:04Z</time>
      </trkpt>
      <trkpt lat="43.81414" lon="3.7358">
        <ele>205.11128262666</ele>
        <time>2015-06-06T11:28:14Z</time>
      </trkpt>
      <trkpt lat="43.81414" lon="3.73555">
        <ele>209.2254402384</ele>
        <time>2015-06-06T11:28:27Z</time>
      </trkpt>
      <trkpt lat="43.81413" lon="3.73536">
        <ele>213.14120216125</ele>
        <time>2015-06-06T11:28:39Z</time>
      </trkpt>
      <trkpt lat="43.81414" lon="3.73533">
        <ele>213.14120216125</ele>
        <time>2015-06-06T11:28:42Z</time>
      </trkpt>
      <trkpt lat="43.81413" lon="3.73521">
        <ele>216.80900389234</ele>
        <time>2015-06-06T11:28:47Z</time>
      </trkpt>
      <trkpt lat="43.81412" lon="3.73513">
        <ele>216.80900389234</ele>
        <time>2015-06-06T11:28:52Z</time>
      </trkpt>
      <trkpt lat="43.81413" lon="3.73507">
        <ele>220.29345255249</ele>
        <time>2015-06-06T11:28:57Z</time>
      </trkpt>
      <trkpt lat="43.81413" lon="3.735">
        <ele>220.29345255249</ele>
        <time>2015-06-06T11:29:02Z</time>
      </trkpt>
      <trkpt lat="43.81412" lon="3.73493">
        <ele>223.58399679729</ele>
        <time>2015-06-06T11:29:07Z</time>
      </trkpt>
      <trkpt lat="43.81411" lon="3.73483">
        <ele>223.58399679729</ele>
        <time>2015-06-06T11:29:12Z</time>
      </trkpt>
      <trkpt lat="43.81409" lon="3.73472">
        <ele>226.64182372073</ele>
        <time>2015-06-06T11:29:17Z</time>
      </trkpt>
      <trkpt lat="43.81408" lon="3.73465">
        <ele>226.64182372073</ele>
        <time>2015-06-06T11:29:22Z</time>
      </trkpt>
      <trkpt lat="43.8141" lon="3.73457">
        <ele>229.51664078751</ele>
        <time>2015-06-06T11:29:27Z</time>
      </trkpt>
      <trkpt lat="43.81412" lon="3.7345">
        <ele>229.51664078751</ele>
        <time>2015-06-06T11:29:32Z</time>
      </trkpt>
      <trkpt lat="43.81413" lon="3.73442">
        <ele>232.27081398461</ele>
        <time>2015-06-06T11:29:37Z</time>
      </trkpt>
      <trkpt lat="43.81414" lon="3.73435">
        <ele>232.27081398461</ele>
        <time>2015-06-06T11:29:42Z</time>
      </trkpt>
      <trkpt lat="43.81418" lon="3.73428">
        <ele>234.81861211267</ele>
        <time>2015-06-06T11:29:54Z</time>
      </trkpt>
      <trkpt lat="43.81429" lon="3.73402">
        <ele>237.35859787379</ele>
        <time>2015-06-06T11:30:07Z</time>
      </trkpt>
      <trkpt lat="43.81433" lon="3.73395">
        <ele>237.35859787379</ele>
        <time>2015-06-06T11:30:12Z</time>
      </trkpt>
      <trkpt lat="43.81437" lon="3.73385">
        <ele>239.78433138873</ele>
        <time>2015-06-06T11:30:17Z</time>
      </trkpt>
      <trkpt lat="43.81441" lon="3.73369">
        <ele>242.07033865089</ele>
        <time>2015-06-06T11:30:28Z</time>
      </trkpt>
      <trkpt lat="43.81444" lon="3.73348">
        <ele>244.29808871774</ele>
        <time>2015-06-06T11:30:42Z</time>
      </trkpt>
      <trkpt lat="43.81444" lon="3.7334">
        <ele>244.29808871774</ele>
        <time>2015-06-06T11:30:47Z</time>
      </trkpt>
      <trkpt lat="43.8144" lon="3.73317">
        <ele>246.36539538233</ele>
        <time>2015-06-06T11:31:05Z</time>
      </trkpt>
      <trkpt lat="43.8144" lon="3.73311">
        <ele>246.36539538233</ele>
        <time>2015-06-06T11:31:08Z</time>
      </trkpt>
      <trkpt lat="43.81431" lon="3.73255">
        <ele>249.09304392819</ele>
        <time>2015-06-06T11:31:40Z</time>
      </trkpt>
      <trkpt lat="43.81431" lon="3.73254">
        <ele>249.09304392819</ele>
        <time>2015-06-06T11:31:42Z</time>
      </trkpt>
      <trkpt lat="43.81431" lon="3.73248">
        <ele>249.09304392819</ele>
        <time>2015-06-06T11:31:47Z</time>
      </trkpt>
      <trkpt lat="43.81431" lon="3.73243">
        <ele>251.43938303678</ele>
        <time>2015-06-06T11:32:00Z</time>
      </trkpt>
      <trkpt lat="43.81449" lon="3.73181">
        <ele>253.50563215391</ele>
        <time>2015-06-06T11:32:42Z</time>
      </trkpt>
      <trkpt lat="43.81454" lon="3.73179">
        <ele>253.50563215391</ele>
        <time>2015-06-06T11:32:50Z</time>
      </trkpt>
      <trkpt lat="43.81458" lon="3.73179">
        <ele>253.50563215391</ele>
        <time>2015-06-06T11:32:58Z</time>
      </trkpt>
      <trkpt lat="43.81521" lon="3.73165">
        <ele>254.02981101906</ele>
        <time>2015-06-06T11:33:47Z</time>
      </trkpt>
      <trkpt lat="43.81566" lon="3.7316">
        <ele>253.49589543742</ele>
        <time>2015-06-06T11:34:40Z</time>
      </trkpt>
      <trkpt lat="43.81577" lon="3.73161">
        <ele>252.52344623329</ele>
        <time>2015-06-06T11:34:42Z</time>
      </trkpt>
      <trkpt lat="43.81581" lon="3.73162">
        <ele>252.52344623329</ele>
        <time>2015-06-06T11:34:47Z</time>
      </trkpt>
      <trkpt lat="43.81589" lon="3.73165">
        <ele>251.15824361027</ele>
        <time>2015-06-06T11:34:56Z</time>
      </trkpt>
      <trkpt lat="43.81591" lon="3.73167">
        <ele>251.15824361027</ele>
        <time>2015-06-06T11:34:57Z</time>
      </trkpt>
      <trkpt lat="43.81613" lon="3.73168">
        <ele>249.00663273507</ele>
        <time>2015-06-06T11:35:47Z</time>
      </trkpt>
      <trkpt lat="43.81617" lon="3.73172">
        <ele>249.00663273507</ele>
        <time>2015-06-06T11:36:00Z</time>
      </trkpt>
      <trkpt lat="43.8166" lon="3.7319">
        <ele>246.10070535708</ele>
        <time>2015-06-06T11:36:45Z</time>
      </trkpt>
      <trkpt lat="43.81674" lon="3.73191">
        <ele>242.99837860779</ele>
        <time>2015-06-06T11:37:08Z</time>
      </trkpt>
      <trkpt lat="43.81702" lon="3.73189">
        <ele>240.04668609186</ele>
        <time>2015-06-06T11:37:43Z</time>
      </trkpt>
      <trkpt lat="43.81721" lon="3.73179">
        <ele>236.5747760561</ele>
        <time>2015-06-06T11:37:47Z</time>
      </trkpt>
      <trkpt lat="43.81728" lon="3.73175">
        <ele>236.5747760561</ele>
        <time>2015-06-06T11:37:54Z</time>
      </trkpt>
      <trkpt lat="43.81731" lon="3.73175">
        <ele>233.35745833912</ele>
        <time>2015-06-06T11:37:57Z</time>
      </trkpt>
      <trkpt lat="43.81734" lon="3.73172">
        <ele>233.35745833912</ele>
        <time>2015-06-06T11:38:02Z</time>
      </trkpt>
      <trkpt lat="43.81736" lon="3.7317">
        <ele>233.35745833912</ele>
        <time>2015-06-06T11:38:07Z</time>
      </trkpt>
      <trkpt lat="43.81763" lon="3.7316">
        <ele>229.46463864407</ele>
        <time>2015-06-06T11:38:47Z</time>
      </trkpt>
      <trkpt lat="43.81762" lon="3.73155">
        <ele>229.46463864407</ele>
        <time>2015-06-06T11:39:07Z</time>
      </trkpt>
      <trkpt lat="43.8177" lon="3.73158">
        <ele>224.99682186204</ele>
        <time>2015-06-06T11:39:47Z</time>
      </trkpt>
      <trkpt lat="43.81777" lon="3.73161">
        <ele>224.99682186204</ele>
        <time>2015-06-06T11:40:12Z</time>
      </trkpt>
      <trkpt lat="43.81781" lon="3.73165">
        <ele>219.54327731893</ele>
        <time>2015-06-06T11:40:47Z</time>
      </trkpt>
      <trkpt lat="43.81781" lon="3.73164">
        <ele>219.54327731893</ele>
        <time>2015-06-06T11:40:52Z</time>
      </trkpt>
      <trkpt lat="43.81796" lon="3.73151">
        <ele>214.104747105</ele>
        <time>2015-06-06T11:41:47Z</time>
      </trkpt>
      <trkpt lat="43.81808" lon="3.73119">
        <ele>209.06654233447</ele>
        <time>2015-06-06T11:42:47Z</time>
      </trkpt>
      <trkpt lat="43.8181" lon="3.73115">
        <ele>209.06654233447</ele>
        <time>2015-06-06T11:43:00Z</time>
      </trkpt>
      <trkpt lat="43.81817" lon="3.73105">
        <ele>204.44192257586</ele>
        <time>2015-06-06T11:43:04Z</time>
      </trkpt>
      <trkpt lat="43.81838" lon="3.73104">
        <ele>200.27100466341</ele>
        <time>2015-06-06T11:43:47Z</time>
      </trkpt>
      <trkpt lat="43.81854" lon="3.73107">
        <ele>196.5013072791</ele>
        <time>2015-06-06T11:43:52Z</time>
      </trkpt>
      <trkpt lat="43.81862" lon="3.73111">
        <ele>196.5013072791</ele>
        <time>2015-06-06T11:43:58Z</time>
      </trkpt>
      <trkpt lat="43.81863" lon="3.73114">
        <ele>193.05420570962</ele>
        <time>2015-06-06T11:44:02Z</time>
      </trkpt>
      <trkpt lat="43.81871" lon="3.73143">
        <ele>189.81270526097</ele>
        <time>2015-06-06T11:44:20Z</time>
      </trkpt>
      <trkpt lat="43.8187" lon="3.73144">
        <ele>189.81270526097</ele>
        <time>2015-06-06T11:44:25Z</time>
      </trkpt>
      <trkpt lat="43.81869" lon="3.73157">
        <ele>186.72679553275</ele>
        <time>2015-06-06T11:44:42Z</time>
      </trkpt>
      <trkpt lat="43.81868" lon="3.73157">
        <ele>186.72679553275</ele>
        <time>2015-06-06T11:44:47Z</time>
      </trkpt>
      <trkpt lat="43.81873" lon="3.73169">
        <ele>183.40082836571</ele>
        <time>2015-06-06T11:45:40Z</time>
      </trkpt>
      <trkpt lat="43.81867" lon="3.73159">
        <ele>179.99364646773</ele>
        <time>2015-06-06T11:46:23Z</time>
      </trkpt>
      <trkpt lat="43.81857" lon="3.73148">
        <ele>176.78193416683</ele>
        <time>2015-06-06T11:46:34Z</time>
      </trkpt>
      <trkpt lat="43.81856" lon="3.73145">
        <ele>176.78193416683</ele>
        <time>2015-06-06T11:46:37Z</time>
      </trkpt>
      <trkpt lat="43.81853" lon="3.73143">
        <ele>176.78193416683</ele>
        <time>2015-06-06T11:46:47Z</time>
      </trkpt>
      <trkpt lat="43.81848" lon="3.7314">
        <ele>173.80264491509</ele>
        <time>2015-06-06T11:46:52Z</time>
      </trkpt>
      <trkpt lat="43.81847" lon="3.73138">
        <ele>173.80264491509</ele>
        <time>2015-06-06T11:46:59Z</time>
      </trkpt>
      <trkpt lat="43.81847" lon="3.73138">
        <ele>173.80264491509</ele>
        <time>2015-06-06T11:47:02Z</time>
      </trkpt>
      <trkpt lat="43.81848" lon="3.7314">
        <ele>173.80264491509</ele>
        <time>2015-06-06T11:47:09Z</time>
      </trkpt>
      <trkpt lat="43.81855" lon="3.73152">
        <ele>171.03114178408</ele>
        <time>2015-06-06T11:47:37Z</time>
      </trkpt>
      <trkpt lat="43.81849" lon="3.7314">
        <ele>168.63190228421</ele>
        <time>2015-06-06T11:47:46Z</time>
      </trkpt>
      <trkpt lat="43.81848" lon="3.7314">
        <ele>168.63190228421</ele>
        <time>2015-06-06T11:47:53Z</time>
      </trkpt>
      <trkpt lat="43.81852" lon="3.73148">
        <ele>168.63190228421</ele>
        <time>2015-06-06T11:48:00Z</time>
      </trkpt>
      <trkpt lat="43.81853" lon="3.73157">
        <ele>166.48104568374</ele>
        <time>2015-06-06T11:48:25Z</time>
      </trkpt>
      <trkpt lat="43.81836" lon="3.73138">
        <ele>164.37656063931</ele>
        <time>2015-06-06T11:48:41Z</time>
      </trkpt>
      <trkpt lat="43.8183" lon="3.73131">
        <ele>164.37656063931</ele>
        <time>2015-06-06T11:48:47Z</time>
      </trkpt>
      <trkpt lat="43.81822" lon="3.73118">
        <ele>162.36224700148</ele>
        <time>2015-06-06T11:48:55Z</time>
      </trkpt>
      <trkpt lat="43.81823" lon="3.73119">
        <ele>162.36224700148</ele>
        <time>2015-06-06T11:48:58Z</time>
      </trkpt>
      <trkpt lat="43.81828" lon="3.73124">
        <ele>162.36224700148</ele>
        <time>2015-06-06T11:49:17Z</time>
      </trkpt>
      <trkpt lat="43.81838" lon="3.73133">
        <ele>160.24715845261</ele>
        <time>2015-06-06T11:49:32Z</time>
      </trkpt>
      <trkpt lat="43.81858" lon="3.73153">
        <ele>158.21521068023</ele>
        <time>2015-06-06T11:49:48Z</time>
      </trkpt>
      <trkpt lat="43.8186" lon="3.73156">
        <ele>158.21521068023</ele>
        <time>2015-06-06T11:49:52Z</time>
      </trkpt>
      <trkpt lat="43.81856" lon="3.73151">
        <ele>156.46490300695</ele>
        <time>2015-06-06T11:49:58Z</time>
      </trkpt>
      <trkpt lat="43.81859" lon="3.73138">
        <ele>154.47235813037</ele>
        <time>2015-06-06T11:50:49Z</time>
      </trkpt>
      <trkpt lat="43.81868" lon="3.73145">
        <ele>152.48819673742</ele>
        <time>2015-06-06T11:50:52Z</time>
      </trkpt>
      <trkpt lat="43.8188" lon="3.7313">
        <ele>150.87396860605</ele>
        <time>2015-06-06T11:51:49Z</time>
      </trkpt>
      <trkpt lat="43.81873" lon="3.73122">
        <ele>149.54520793542</ele>
        <time>2015-06-06T11:51:52Z</time>
      </trkpt>
      <trkpt lat="43.81886" lon="3.73133">
        <ele>148.33614189032</ele>
        <time>2015-06-06T11:52:09Z</time>
      </trkpt>
      <trkpt lat="43.81894" lon="3.73117">
        <ele>147.09262047809</ele>
        <time>2015-06-06T11:52:38Z</time>
      </trkpt>
      <trkpt lat="43.81888" lon="3.73104">
        <ele>145.7437835456</ele>
        <time>2015-06-06T11:52:52Z</time>
      </trkpt>
      <trkpt lat="43.81898" lon="3.73098">
        <ele>144.2240680126</ele>
        <time>2015-06-06T11:53:27Z</time>
      </trkpt>
      <trkpt lat="43.819" lon="3.73095">
        <ele>144.2240680126</ele>
        <time>2015-06-06T11:53:36Z</time>
      </trkpt>
      <trkpt lat="43.81914" lon="3.73107">
        <ele>142.74700873294</ele>
        <time>2015-06-06T11:53:52Z</time>
      </trkpt>
      <trkpt lat="43.8192" lon="3.73106">
        <ele>142.74700873294</ele>
        <time>2015-06-06T11:54:18Z</time>
      </trkpt>
      <trkpt lat="43.81924" lon="3.73091">
        <ele>141.14968725955</ele>
        <time>2015-06-06T11:54:37Z</time>
      </trkpt>
      <trkpt lat="43.81909" lon="3.73068">
        <ele>139.38228729532</ele>
        <time>2015-06-06T11:55:07Z</time>
      </trkpt>
      <trkpt lat="43.81911" lon="3.73053">
        <ele>137.83168626532</ele>
        <time>2015-06-06T11:55:27Z</time>
      </trkpt>
      <trkpt lat="43.81921" lon="3.73032">
        <ele>136.55277893507</ele>
        <time>2015-06-06T11:55:52Z</time>
      </trkpt>
      <trkpt lat="43.81922" lon="3.7303">
        <ele>136.55277893507</ele>
        <time>2015-06-06T11:55:57Z</time>
      </trkpt>
      <trkpt lat="43.81927" lon="3.73029">
        <ele>136.55277893507</ele>
        <time>2015-06-06T11:56:02Z</time>
      </trkpt>
      <trkpt lat="43.81931" lon="3.73024">
        <ele>135.55229706975</ele>
        <time>2015-06-06T11:56:07Z</time>
      </trkpt>
      <trkpt lat="43.81933" lon="3.7302">
        <ele>135.55229706975</ele>
        <time>2015-06-06T11:56:16Z</time>
      </trkpt>
      <trkpt lat="43.81952" lon="3.72995">
        <ele>134.89330535026</ele>
        <time>2015-06-06T11:56:57Z</time>
      </trkpt>
      <trkpt lat="43.81955" lon="3.72992">
        <ele>134.89330535026</ele>
        <time>2015-06-06T11:57:08Z</time>
      </trkpt>
      <trkpt lat="43.81967" lon="3.72967">
        <ele>134.53223459002</ele>
        <time>2015-06-06T11:58:00Z</time>
      </trkpt>
      <trkpt lat="43.81966" lon="3.72961">
        <ele>134.53223459002</ele>
        <time>2015-06-06T11:58:02Z</time>
      </trkpt>
      <trkpt lat="43.81972" lon="3.72951">
        <ele>134.29800682844</ele>
        <time>2015-06-06T11:58:35Z</time>
      </trkpt>
      <trkpt lat="43.81989" lon="3.72939">
        <ele>134.2481007854</ele>
        <time>2015-06-06T11:59:51Z</time>
      </trkpt>
      <trkpt lat="43.81996" lon="3.7293">
        <ele>134.24772771084</ele>
        <time>2015-06-06T11:59:58Z</time>
      </trkpt>
      <trkpt lat="43.81997" lon="3.72927">
        <ele>134.24772771084</ele>
        <time>2015-06-06T12:00:09Z</time>
      </trkpt>
      <trkpt lat="43.82003" lon="3.7292">
        <ele>134.37382383497</ele>
        <time>2015-06-06T12:00:17Z</time>
      </trkpt>
      <trkpt lat="43.82018" lon="3.72912">
        <ele>134.8992671518</ele>
        <time>2015-06-06T12:00:43Z</time>
      </trkpt>
      <trkpt lat="43.82026" lon="3.72909">
        <ele>134.8992671518</ele>
        <time>2015-06-06T12:00:53Z</time>
      </trkpt>
      <trkpt lat="43.82028" lon="3.72904">
        <ele>135.58538836843</ele>
        <time>2015-06-06T12:01:01Z</time>
      </trkpt>
      <trkpt lat="43.82029" lon="3.72902">
        <ele>135.58538836843</ele>
        <time>2015-06-06T12:01:33Z</time>
      </trkpt>
      <trkpt lat="43.82038" lon="3.72888">
        <ele>136.32608709583</ele>
        <time>2015-06-06T12:01:42Z</time>
      </trkpt>
      <trkpt lat="43.82062" lon="3.72889">
        <ele>137.55661512941</ele>
        <time>2015-06-06T12:01:53Z</time>
      </trkpt>
      <trkpt lat="43.82063" lon="3.72887">
        <ele>137.55661512941</ele>
        <time>2015-06-06T12:01:57Z</time>
      </trkpt>
      <trkpt lat="43.82068" lon="3.72885">
        <ele>137.55661512941</ele>
        <time>2015-06-06T12:02:02Z</time>
      </trkpt>
      <trkpt lat="43.82084" lon="3.72878">
        <ele>139.40488902895</ele>
        <time>2015-06-06T12:02:33Z</time>
      </trkpt>
      <trkpt lat="43.82082" lon="3.72878">
        <ele>139.40488902895</ele>
        <time>2015-06-06T12:02:42Z</time>
      </trkpt>
      <trkpt lat="43.82082" lon="3.72878">
        <ele>139.40488902895</ele>
        <time>2015-06-06T12:02:54Z</time>
      </trkpt>
      <trkpt lat="43.82094" lon="3.72878">
        <ele>141.29561552631</ele>
        <time>2015-06-06T12:02:58Z</time>
      </trkpt>
      <trkpt lat="43.82101" lon="3.72875">
        <ele>141.29561552631</ele>
        <time>2015-06-06T12:03:03Z</time>
      </trkpt>
      <trkpt lat="43.82097" lon="3.72864">
        <ele>143.51783053754</ele>
        <time>2015-06-06T12:03:31Z</time>
      </trkpt>
      <trkpt lat="43.82109" lon="3.72854">
        <ele>145.93478649893</ele>
        <time>2015-06-06T12:03:45Z</time>
      </trkpt>
      <trkpt lat="43.82109" lon="3.72853">
        <ele>145.93478649893</ele>
        <time>2015-06-06T12:03:47Z</time>
      </trkpt>
      <trkpt lat="43.82116" lon="3.72848">
        <ele>145.93478649893</ele>
        <time>2015-06-06T12:03:56Z</time>
      </trkpt>
      <trkpt lat="43.82133" lon="3.72833">
        <ele>148.86641551633</ele>
        <time>2015-06-06T12:04:28Z</time>
      </trkpt>
      <trkpt lat="43.82138" lon="3.72831">
        <ele>148.86641551633</ele>
        <time>2015-06-06T12:04:41Z</time>
      </trkpt>
      <trkpt lat="43.82153" lon="3.72854">
        <ele>152.29066927566</ele>
        <time>2015-06-06T12:05:22Z</time>
      </trkpt>
      <trkpt lat="43.82164" lon="3.72865">
        <ele>155.43631352444</ele>
        <time>2015-06-06T12:05:37Z</time>
      </trkpt>
      <trkpt lat="43.8217" lon="3.72872">
        <ele>155.43631352444</ele>
        <time>2015-06-06T12:05:54Z</time>
      </trkpt>
      <trkpt lat="43.82176" lon="3.72878">
        <ele>158.38283169177</ele>
        <time>2015-06-06T12:05:57Z</time>
      </trkpt>
      <trkpt lat="43.82176" lon="3.72878">
        <ele>158.38283169177</ele>
        <time>2015-06-06T12:06:29Z</time>
      </trkpt>
      <trkpt lat="43.82211" lon="3.72855">
        <ele>161.47857511632</ele>
        <time>2015-06-06T12:06:57Z</time>
      </trkpt>
      <trkpt lat="43.82213" lon="3.72855">
        <ele>161.47857511632</ele>
        <time>2015-06-06T12:07:02Z</time>
      </trkpt>
      <trkpt lat="43.82246" lon="3.72862">
        <ele>164.36862381672</ele>
        <time>2015-06-06T12:07:58Z</time>
      </trkpt>
      <trkpt lat="43.82249" lon="3.72861">
        <ele>164.36862381672</ele>
        <time>2015-06-06T12:08:02Z</time>
      </trkpt>
      <trkpt lat="43.82254" lon="3.72864">
        <ele>164.36862381672</ele>
        <time>2015-06-06T12:08:12Z</time>
      </trkpt>
      <trkpt lat="43.8226" lon="3.7286">
        <ele>166.99893481089</ele>
        <time>2015-06-06T12:09:05Z</time>
      </trkpt>
      <trkpt lat="43.82296" lon="3.72868">
        <ele>169.42137785118</ele>
        <time>2015-06-06T12:09:47Z</time>
      </trkpt>
      <trkpt lat="43.82305" lon="3.72866">
        <ele>171.6849070213</ele>
        <time>2015-06-06T12:09:59Z</time>
      </trkpt>
      <trkpt lat="43.82308" lon="3.72866">
        <ele>171.6849070213</ele>
        <time>2015-06-06T12:10:02Z</time>
      </trkpt>
      <trkpt lat="43.82312" lon="3.72867">
        <ele>171.6849070213</ele>
        <time>2015-06-06T12:10:12Z</time>
      </trkpt>
      <trkpt lat="43.82341" lon="3.72872">
        <ele>173.85005713123</ele>
        <time>2015-06-06T12:11:02Z</time>
      </trkpt>
      <trkpt lat="43.82367" lon="3.72799">
        <ele>176.44912944085</ele>
        <time>2015-06-06T12:12:32Z</time>
      </trkpt>
      <trkpt lat="43.82375" lon="3.72784">
        <ele>179.7005615224</ele>
        <time>2015-06-06T12:13:02Z</time>
      </trkpt>
      <trkpt lat="43.824" lon="3.72743">
        <ele>183.34405629467</ele>
        <time>2015-06-06T12:13:47Z</time>
      </trkpt>
      <trkpt lat="43.82398" lon="3.72737">
        <ele>183.34405629467</ele>
        <time>2015-06-06T12:13:52Z</time>
      </trkpt>
      <trkpt lat="43.82399" lon="3.72733">
        <ele>183.34405629467</ele>
        <time>2015-06-06T12:13:57Z</time>
      </trkpt>
      <trkpt lat="43.82401" lon="3.7273">
        <ele>186.76299227361</ele>
        <time>2015-06-06T12:14:02Z</time>
      </trkpt>
      <trkpt lat="43.82401" lon="3.72727">
        <ele>186.76299227361</ele>
        <time>2015-06-06T12:14:07Z</time>
      </trkpt>
      <trkpt lat="43.82418" lon="3.7271">
        <ele>189.97792965192</ele>
        <time>2015-06-06T12:14:42Z</time>
      </trkpt>
      <trkpt lat="43.82421" lon="3.72698">
        <ele>193.16736368025</ele>
        <time>2015-06-06T12:15:23Z</time>
      </trkpt>
      <trkpt lat="43.82413" lon="3.72688">
        <ele>196.36739176112</ele>
        <time>2015-06-06T12:16:03Z</time>
      </trkpt>
      <trkpt lat="43.82421" lon="3.72699">
        <ele>199.51090282153</ele>
        <time>2015-06-06T12:16:57Z</time>
      </trkpt>
      <trkpt lat="43.82425" lon="3.72695">
        <ele>199.51090282153</ele>
        <time>2015-06-06T12:17:03Z</time>
      </trkpt>
      <trkpt lat="43.82427" lon="3.72691">
        <ele>199.51090282153</ele>
        <time>2015-06-06T12:17:07Z</time>
      </trkpt>
      <trkpt lat="43.82463" lon="3.7271">
        <ele>202.33446919851</ele>
        <time>2015-06-06T12:18:02Z</time>
      </trkpt>
      <trkpt lat="43.82468" lon="3.7271">
        <ele>202.33446919851</ele>
        <time>2015-06-06T12:18:07Z</time>
      </trkpt>
      <trkpt lat="43.8249" lon="3.72725">
        <ele>204.66731899702</ele>
        <time>2015-06-06T12:18:47Z</time>
      </trkpt>
      <trkpt lat="43.82504" lon="3.72726">
        <ele>206.68440216404</ele>
        <time>2015-06-06T12:19:02Z</time>
      </trkpt>
      <trkpt lat="43.82512" lon="3.72726">
        <ele>206.68440216404</ele>
        <time>2015-06-06T12:19:11Z</time>
      </trkpt>
      <trkpt lat="43.82549" lon="3.72728">
        <ele>208.49138856072</ele>
        <time>2015-06-06T12:20:02Z</time>
      </trkpt>
      <trkpt lat="43.82555" lon="3.72729">
        <ele>208.49138856072</ele>
        <time>2015-06-06T12:20:07Z</time>
      </trkpt>
      <trkpt lat="43.82588" lon="3.72752">
        <ele>210.92207048679</ele>
        <time>2015-06-06T12:21:02Z</time>
      </trkpt>
      <trkpt lat="43.8259" lon="3.72755">
        <ele>210.92207048679</ele>
        <time>2015-06-06T12:21:08Z</time>
      </trkpt>
      <trkpt lat="43.82591" lon="3.72757">
        <ele>210.92207048679</ele>
        <time>2015-06-06T12:21:25Z</time>
      </trkpt>
      <trkpt lat="43.82602" lon="3.72786">
        <ele>213.55141717466</ele>
        <time>2015-06-06T12:21:52Z</time>
      </trkpt>
      <trkpt lat="43.82613" lon="3.72807">
        <ele>215.85565932692</ele>
        <time>2015-06-06T12:22:09Z</time>
      </trkpt>
      <trkpt lat="43.82631" lon="3.72824">
        <ele>218.02803273944</ele>
        <time>2015-06-06T12:22:32Z</time>
      </trkpt>
      <trkpt lat="43.82643" lon="3.72841">
        <ele>220.1041122523</ele>
        <time>2015-06-06T12:22:52Z</time>
      </trkpt>
      <trkpt lat="43.82644" lon="3.72844">
        <ele>220.1041122523</ele>
        <time>2015-06-06T12:23:02Z</time>
      </trkpt>
      <trkpt lat="43.82645" lon="3.72847">
        <ele>220.1041122523</ele>
        <time>2015-06-06T12:23:07Z</time>
      </trkpt>
      <trkpt lat="43.82647" lon="3.7285">
        <ele>220.1041122523</ele>
        <time>2015-06-06T12:23:12Z</time>
      </trkpt>
      <trkpt lat="43.82652" lon="3.72862">
        <ele>222.33356569503</ele>
        <time>2015-06-06T12:23:30Z</time>
      </trkpt>
      <trkpt lat="43.8266" lon="3.7287">
        <ele>224.37108847331</ele>
        <time>2015-06-06T12:23:32Z</time>
      </trkpt>
      <trkpt lat="43.82665" lon="3.72873">
        <ele>224.37108847331</ele>
        <time>2015-06-06T12:23:42Z</time>
      </trkpt>
      <trkpt lat="43.82665" lon="3.72877">
        <ele>224.37108847331</ele>
        <time>2015-06-06T12:23:42Z</time>
      </trkpt>
      <trkpt lat="43.82669" lon="3.72885">
        <ele>226.27221609739</ele>
        <time>2015-06-06T12:23:47Z</time>
      </trkpt>
      <trkpt lat="43.82674" lon="3.72891">
        <ele>226.27221609739</ele>
        <time>2015-06-06T12:24:00Z</time>
      </trkpt>
      <trkpt lat="43.82685" lon="3.72895">
        <ele>227.97372300917</ele>
        <time>2015-06-06T12:24:04Z</time>
      </trkpt>
      <trkpt lat="43.82706" lon="3.72932">
        <ele>229.7636767428</ele>
        <time>2015-06-06T12:25:03Z</time>
      </trkpt>
      <trkpt lat="43.82714" lon="3.72938">
        <ele>231.41894542488</ele>
        <time>2015-06-06T12:25:08Z</time>
      </trkpt>
      <trkpt lat="43.82718" lon="3.72938">
        <ele>231.41894542488</ele>
        <time>2015-06-06T12:25:19Z</time>
      </trkpt>
      <trkpt lat="43.82737" lon="3.72977">
        <ele>232.92070008122</ele>
        <time>2015-06-06T12:26:04Z</time>
      </trkpt>
      <trkpt lat="43.82737" lon="3.72978">
        <ele>232.92070008122</ele>
        <time>2015-06-06T12:26:07Z</time>
      </trkpt>
      <trkpt lat="43.82738" lon="3.72978">
        <ele>232.92070008122</ele>
        <time>2015-06-06T12:26:12Z</time>
      </trkpt>
      <trkpt lat="43.82743" lon="3.7298">
        <ele>232.92070008122</ele>
        <time>2015-06-06T12:26:24Z</time>
      </trkpt>
      <trkpt lat="43.8274" lon="3.72983">
        <ele>234.67002947315</ele>
        <time>2015-06-06T12:26:32Z</time>
      </trkpt>
      <trkpt lat="43.82735" lon="3.72985">
        <ele>234.67002947315</ele>
        <time>2015-06-06T12:26:42Z</time>
      </trkpt>
      <trkpt lat="43.82733" lon="3.72985">
        <ele>234.67002947315</ele>
        <time>2015-06-06T12:26:47Z</time>
      </trkpt>
      <trkpt lat="43.82731" lon="3.72987">
        <ele>236.24538861234</ele>
        <time>2015-06-06T12:26:52Z</time>
      </trkpt>
      <trkpt lat="43.82731" lon="3.72987">
        <ele>236.24538861234</ele>
        <time>2015-06-06T12:26:57Z</time>
      </trkpt>
      <trkpt lat="43.82721" lon="3.72985">
        <ele>237.67476360102</ele>
        <time>2015-06-06T12:27:08Z</time>
      </trkpt>
      <trkpt lat="43.82716" lon="3.72988">
        <ele>237.67476360102</ele>
        <time>2015-06-06T12:27:15Z</time>
      </trkpt>
      <trkpt lat="43.82697" lon="3.72984">
        <ele>239.37373389093</ele>
        <time>2015-06-06T12:27:42Z</time>
      </trkpt>
      <trkpt lat="43.82674" lon="3.72976">
        <ele>241.16466321552</ele>
        <time>2015-06-06T12:28:06Z</time>
      </trkpt>
      <trkpt lat="43.82637" lon="3.72986">
        <ele>242.65222929289</ele>
        <time>2015-06-06T12:29:04Z</time>
      </trkpt>
      <trkpt lat="43.8262" lon="3.72992">
        <ele>244.85459641999</ele>
        <time>2015-06-06T12:29:07Z</time>
      </trkpt>
      <trkpt lat="43.82615" lon="3.72994">
        <ele>244.85459641999</ele>
        <time>2015-06-06T12:29:12Z</time>
      </trkpt>
      <trkpt lat="43.82611" lon="3.72993">
        <ele>246.82531468154</ele>
        <time>2015-06-06T12:29:21Z</time>
      </trkpt>
      <trkpt lat="43.82553" lon="3.73015">
        <ele>248.89875123825</ele>
        <time>2015-06-06T12:30:05Z</time>
      </trkpt>
      <trkpt lat="43.82551" lon="3.73016">
        <ele>248.89875123825</ele>
        <time>2015-06-06T12:30:07Z</time>
      </trkpt>
      <trkpt lat="43.82546" lon="3.7302">
        <ele>248.89875123825</ele>
        <time>2015-06-06T12:30:16Z</time>
      </trkpt>
      <trkpt lat="43.82498" lon="3.73087">
        <ele>251.41331606618</ele>
        <time>2015-06-06T12:31:07Z</time>
      </trkpt>
      <trkpt lat="43.82438" lon="3.73129">
        <ele>254.46521877961</ele>
        <time>2015-06-06T12:32:07Z</time>
      </trkpt>
      <trkpt lat="43.82435" lon="3.73133">
        <ele>254.46521877961</ele>
        <time>2015-06-06T12:32:12Z</time>
      </trkpt>
      <trkpt lat="43.82382" lon="3.73188">
        <ele>257.33512519213</ele>
        <time>2015-06-06T12:33:07Z</time>
      </trkpt>
      <trkpt lat="43.82375" lon="3.73198">
        <ele>259.73181781535</ele>
        <time>2015-06-06T12:33:17Z</time>
      </trkpt>
      <trkpt lat="43.82342" lon="3.73229">
        <ele>261.45892127724</ele>
        <time>2015-06-06T12:33:48Z</time>
      </trkpt>
      <trkpt lat="43.82329" lon="3.73247">
        <ele>262.89846502552</ele>
        <time>2015-06-06T12:34:07Z</time>
      </trkpt>
      <trkpt lat="43.82325" lon="3.73254">
        <ele>262.89846502552</ele>
        <time>2015-06-06T12:34:13Z</time>
      </trkpt>
      <trkpt lat="43.82278" lon="3.73312">
        <ele>263.97293394788</ele>
        <time>2015-06-06T12:35:08Z</time>
      </trkpt>
      <trkpt lat="43.82277" lon="3.73317">
        <ele>263.97293394788</ele>
        <time>2015-06-06T12:35:12Z</time>
      </trkpt>
      <trkpt lat="43.82223" lon="3.73417">
        <ele>264.00629995317</ele>
        <time>2015-06-06T12:36:32Z</time>
      </trkpt>
      <trkpt lat="43.82222" lon="3.73423">
        <ele>264.00629995317</ele>
        <time>2015-06-06T12:36:37Z</time>
      </trkpt>
      <trkpt lat="43.8222" lon="3.73431">
        <ele>263.71538868437</ele>
        <time>2015-06-06T12:36:42Z</time>
      </trkpt>
      <trkpt lat="43.82219" lon="3.73437">
        <ele>263.71538868437</ele>
        <time>2015-06-06T12:36:47Z</time>
      </trkpt>
      <trkpt lat="43.82217" lon="3.73438">
        <ele>263.71538868437</ele>
        <time>2015-06-06T12:36:52Z</time>
      </trkpt>
      <trkpt lat="43.82212" lon="3.73444">
        <ele>263.10236566531</ele>
        <time>2015-06-06T12:36:57Z</time>
      </trkpt>
      <trkpt lat="43.8221" lon="3.73449">
        <ele>263.10236566531</ele>
        <time>2015-06-06T12:37:02Z</time>
      </trkpt>
      <trkpt lat="43.82209" lon="3.73451">
        <ele>263.10236566531</ele>
        <time>2015-06-06T12:37:07Z</time>
      </trkpt>
      <trkpt lat="43.82202" lon="3.73468">
        <ele>262.17012653626</ele>
        <time>2015-06-06T12:37:12Z</time>
      </trkpt>
      <trkpt lat="43.82201" lon="3.73475">
        <ele>262.17012653626</ele>
        <time>2015-06-06T12:37:17Z</time>
      </trkpt>
      <trkpt lat="43.82197" lon="3.73481">
        <ele>260.96544564043</ele>
        <time>2015-06-06T12:37:22Z</time>
      </trkpt>
      <trkpt lat="43.82195" lon="3.7348">
        <ele>260.96544564043</ele>
        <time>2015-06-06T12:37:27Z</time>
      </trkpt>
      <trkpt lat="43.82191" lon="3.7348">
        <ele>260.96544564043</ele>
        <time>2015-06-06T12:37:32Z</time>
      </trkpt>
      <trkpt lat="43.8219" lon="3.73477">
        <ele>260.96544564043</ele>
        <time>2015-06-06T12:37:37Z</time>
      </trkpt>
      <trkpt lat="43.82188" lon="3.73471">
        <ele>259.18649522541</ele>
        <time>2015-06-06T12:37:42Z</time>
      </trkpt>
      <trkpt lat="43.82186" lon="3.73465">
        <ele>259.18649522541</ele>
        <time>2015-06-06T12:37:47Z</time>
      </trkpt>
      <trkpt lat="43.82187" lon="3.7346">
        <ele>259.18649522541</ele>
        <time>2015-06-06T12:37:52Z</time>
      </trkpt>
      <trkpt lat="43.82186" lon="3.73454">
        <ele>257.34775850371</ele>
        <time>2015-06-06T12:37:57Z</time>
      </trkpt>
      <trkpt lat="43.82187" lon="3.73447">
        <ele>257.34775850371</ele>
        <time>2015-06-06T12:38:02Z</time>
      </trkpt>
      <trkpt lat="43.82188" lon="3.73445">
        <ele>257.34775850371</ele>
        <time>2015-06-06T12:38:07Z</time>
      </trkpt>
      <trkpt lat="43.82189" lon="3.73448">
        <ele>255.36394429559</ele>
        <time>2015-06-06T12:38:27Z</time>
      </trkpt>
      <trkpt lat="43.82188" lon="3.73454">
        <ele>255.36394429559</ele>
        <time>2015-06-06T12:38:32Z</time>
      </trkpt>
      <trkpt lat="43.82187" lon="3.73461">
        <ele>253.44452023728</ele>
        <time>2015-06-06T12:38:37Z</time>
      </trkpt>
      <trkpt lat="43.82187" lon="3.73469">
        <ele>253.44452023728</ele>
        <time>2015-06-06T12:38:42Z</time>
      </trkpt>
      <trkpt lat="43.82188" lon="3.73476">
        <ele>251.53823599797</ele>
        <time>2015-06-06T12:38:47Z</time>
      </trkpt>
      <trkpt lat="43.82187" lon="3.7348">
        <ele>251.53823599797</ele>
        <time>2015-06-06T12:39:00Z</time>
      </trkpt>
      <trkpt lat="43.82186" lon="3.73517">
        <ele>249.65503228088</ele>
        <time>2015-06-06T12:39:12Z</time>
      </trkpt>
      <trkpt lat="43.82185" lon="3.73525">
        <ele>249.65503228088</ele>
        <time>2015-06-06T12:39:17Z</time>
      </trkpt>
      <trkpt lat="43.82158" lon="3.73593">
        <ele>247.7029759824</ele>
        <time>2015-06-06T12:40:13Z</time>
      </trkpt>
      <trkpt lat="43.82157" lon="3.73598">
        <ele>247.7029759824</ele>
        <time>2015-06-06T12:40:17Z</time>
      </trkpt>
      <trkpt lat="43.82153" lon="3.73609">
        <ele>245.82744067504</ele>
        <time>2015-06-06T12:40:22Z</time>
      </trkpt>
      <trkpt lat="43.8215" lon="3.73615">
        <ele>245.82744067504</ele>
        <time>2015-06-06T12:40:27Z</time>
      </trkpt>
      <trkpt lat="43.82116" lon="3.73677">
        <ele>243.84562813681</ele>
        <time>2015-06-06T12:41:11Z</time>
      </trkpt>
      <trkpt lat="43.82095" lon="3.73714">
        <ele>241.81879783903</ele>
        <time>2015-06-06T12:42:10Z</time>
      </trkpt>
      <trkpt lat="43.82078" lon="3.73752">
        <ele>239.89004354799</ele>
        <time>2015-06-06T12:42:12Z</time>
      </trkpt>
      <trkpt lat="43.82052" lon="3.73799">
        <ele>237.80230292839</ele>
        <time>2015-06-06T12:43:08Z</time>
      </trkpt>
      <trkpt lat="43.82032" lon="3.73844">
        <ele>235.79313224387</ele>
        <time>2015-06-06T12:43:13Z</time>
      </trkpt>
      <trkpt lat="43.82029" lon="3.7385">
        <ele>235.79313224387</ele>
        <time>2015-06-06T12:43:17Z</time>
      </trkpt>
      <trkpt lat="43.8201" lon="3.7387">
        <ele>233.70744170136</ele>
        <time>2015-06-06T12:43:54Z</time>
      </trkpt>
      <trkpt lat="43.81982" lon="3.73866">
        <ele>231.55997909679</ele>
        <time>2015-06-06T12:44:13Z</time>
      </trkpt>
      <trkpt lat="43.81978" lon="3.73866">
        <ele>231.55997909679</ele>
        <time>2015-06-06T12:44:17Z</time>
      </trkpt>
      <trkpt lat="43.81958" lon="3.73859">
        <ele>228.83107206769</ele>
        <time>2015-06-06T12:44:42Z</time>
      </trkpt>
      <trkpt lat="43.8193" lon="3.73857">
        <ele>225.55934903</ele>
        <time>2015-06-06T12:45:17Z</time>
      </trkpt>
      <trkpt lat="43.81881" lon="3.73883">
        <ele>220.7009735055</ele>
        <time>2015-06-06T12:46:17Z</time>
      </trkpt>
      <trkpt lat="43.81868" lon="3.73884">
        <ele>215.97337969037</ele>
        <time>2015-06-06T12:46:29Z</time>
      </trkpt>
      <trkpt lat="43.81864" lon="3.73885">
        <ele>215.97337969037</ele>
        <time>2015-06-06T12:46:45Z</time>
      </trkpt>
      <trkpt lat="43.81856" lon="3.73887">
        <ele>211.1657382362</ele>
        <time>2015-06-06T12:46:45Z</time>
      </trkpt>
      <trkpt lat="43.81848" lon="3.73892">
        <ele>211.1657382362</ele>
        <time>2015-06-06T12:46:47Z</time>
      </trkpt>
      <trkpt lat="43.81829" lon="3.73896">
        <ele>205.99610216771</ele>
        <time>2015-06-06T12:47:00Z</time>
      </trkpt>
      <trkpt lat="43.81783" lon="3.73897">
        <ele>199.55536783264</ele>
        <time>2015-06-06T12:47:42Z</time>
      </trkpt>
      <trkpt lat="43.81777" lon="3.73899">
        <ele>199.55536783264</ele>
        <time>2015-06-06T12:47:47Z</time>
      </trkpt>
      <trkpt lat="43.81771" lon="3.73902">
        <ele>192.79135525479</ele>
        <time>2015-06-06T12:47:52Z</time>
      </trkpt>
      <trkpt lat="43.81766" lon="3.73906">
        <ele>192.79135525479</ele>
        <time>2015-06-06T12:47:57Z</time>
      </trkpt>
      <trkpt lat="43.81763" lon="3.73908">
        <ele>186.13599482835</ele>
        <time>2015-06-06T12:48:02Z</time>
      </trkpt>
      <trkpt lat="43.81758" lon="3.73908">
        <ele>186.13599482835</ele>
        <time>2015-06-06T12:48:07Z</time>
      </trkpt>
      <trkpt lat="43.81754" lon="3.73911">
        <ele>179.71492425541</ele>
        <time>2015-06-06T12:48:12Z</time>
      </trkpt>
      <trkpt lat="43.8175" lon="3.73917">
        <ele>179.71492425541</ele>
        <time>2015-06-06T12:48:17Z</time>
      </trkpt>
      <trkpt lat="43.8175" lon="3.73924">
        <ele>173.6001941235</ele>
        <time>2015-06-06T12:48:22Z</time>
      </trkpt>
      <trkpt lat="43.8175" lon="3.73926">
        <ele>173.6001941235</ele>
        <time>2015-06-06T12:48:27Z</time>
      </trkpt>
      <trkpt lat="43.81747" lon="3.7394">
        <ele>167.77075293938</ele>
        <time>2015-06-06T12:48:47Z</time>
      </trkpt>
      <trkpt lat="43.81747" lon="3.73945">
        <ele>167.77075293938</ele>
        <time>2015-06-06T12:48:52Z</time>
      </trkpt>
      <trkpt lat="43.81748" lon="3.73948">
        <ele>167.77075293938</ele>
        <time>2015-06-06T12:48:57Z</time>
      </trkpt>
      <trkpt lat="43.81749" lon="3.73949">
        <ele>167.77075293938</ele>
        <time>2015-06-06T12:49:02Z</time>
      </trkpt>
      <trkpt lat="43.81751" lon="3.73951">
        <ele>162.45079057286</ele>
        <time>2015-06-06T12:49:07Z</time>
      </trkpt>
      <trkpt lat="43.81753" lon="3.73957">
        <ele>162.45079057286</ele>
        <time>2015-06-06T12:49:12Z</time>
      </trkpt>
      <trkpt lat="43.81753" lon="3.73962">
        <ele>162.45079057286</ele>
        <time>2015-06-06T12:49:17Z</time>
      </trkpt>
      <trkpt lat="43.81753" lon="3.73968">
        <ele>157.65875493189</ele>
        <time>2015-06-06T12:49:22Z</time>
      </trkpt>
      <trkpt lat="43.81753" lon="3.73973">
        <ele>157.65875493189</ele>
        <time>2015-06-06T12:49:27Z</time>
      </trkpt>
      <trkpt lat="43.81754" lon="3.73977">
        <ele>157.65875493189</ele>
        <time>2015-06-06T12:49:32Z</time>
      </trkpt>
      <trkpt lat="43.81757" lon="3.73982">
        <ele>153.36652538247</ele>
        <time>2015-06-06T12:49:37Z</time>
      </trkpt>
      <trkpt lat="43.81759" lon="3.73987">
        <ele>153.36652538247</ele>
        <time>2015-06-06T12:49:42Z</time>
      </trkpt>
      <trkpt lat="43.8176" lon="3.73991">
        <ele>153.36652538247</ele>
        <time>2015-06-06T12:49:47Z</time>
      </trkpt>
      <trkpt lat="43.81757" lon="3.73996">
        <ele>149.54615160649</ele>
        <time>2015-06-06T12:49:52Z</time>
      </trkpt>
      <trkpt lat="43.81753" lon="3.74001">
        <ele>149.54615160649</ele>
        <time>2015-06-06T12:49:57Z</time>
      </trkpt>
      <trkpt lat="43.81751" lon="3.74011">
        <ele>146.18434157853</ele>
        <time>2015-06-06T12:50:02Z</time>
      </trkpt>
      <trkpt lat="43.81746" lon="3.74019">
        <ele>146.18434157853</ele>
        <time>2015-06-06T12:50:07Z</time>
      </trkpt>
      <trkpt lat="43.81742" lon="3.74025">
        <ele>143.35349348745</ele>
        <time>2015-06-06T12:50:12Z</time>
      </trkpt>
      <trkpt lat="43.81741" lon="3.74027">
        <ele>143.35349348745</ele>
        <time>2015-06-06T12:50:17Z</time>
      </trkpt>
      <trkpt lat="43.81735" lon="3.74037">
        <ele>141.36374098361</ele>
        <time>2015-06-06T12:50:22Z</time>
      </trkpt>
      <trkpt lat="43.81728" lon="3.7404">
        <ele>141.36374098361</ele>
        <time>2015-06-06T12:50:27Z</time>
      </trkpt>
      <trkpt lat="43.81723" lon="3.74044">
        <ele>139.87997693448</ele>
        <time>2015-06-06T12:50:32Z</time>
      </trkpt>
      <trkpt lat="43.81718" lon="3.74048">
        <ele>139.87997693448</ele>
        <time>2015-06-06T12:50:37Z</time>
      </trkpt>
      <trkpt lat="43.81712" lon="3.74051">
        <ele>138.92135630639</ele>
        <time>2015-06-06T12:50:42Z</time>
      </trkpt>
      <trkpt lat="43.81707" lon="3.74054">
        <ele>138.92135630639</ele>
        <time>2015-06-06T12:50:47Z</time>
      </trkpt>
      <trkpt lat="43.81689" lon="3.74058">
        <ele>138.57585192931</ele>
        <time>2015-06-06T12:51:02Z</time>
      </trkpt>
      <trkpt lat="43.81683" lon="3.74059">
        <ele>138.57585192931</ele>
        <time>2015-06-06T12:51:07Z</time>
      </trkpt>
      <trkpt lat="43.81676" lon="3.74063">
        <ele>138.6491223981</ele>
        <time>2015-06-06T12:51:14Z</time>
      </trkpt>
      <trkpt lat="43.81674" lon="3.74064">
        <ele>138.6491223981</ele>
        <time>2015-06-06T12:51:17Z</time>
      </trkpt>
      <trkpt lat="43.81649" lon="3.74068">
        <ele>139.29110272772</ele>
        <time>2015-06-06T12:51:50Z</time>
      </trkpt>
      <trkpt lat="43.81603" lon="3.74066">
        <ele>140.48035720283</ele>
        <time>2015-06-06T12:52:17Z</time>
      </trkpt>
      <trkpt lat="43.81598" lon="3.74063">
        <ele>140.48035720283</ele>
        <time>2015-06-06T12:52:22Z</time>
      </trkpt>
      <trkpt lat="43.81593" lon="3.74065">
        <ele>141.95030518795</ele>
        <time>2015-06-06T12:52:27Z</time>
      </trkpt>
      <trkpt lat="43.81587" lon="3.74067">
        <ele>141.95030518795</ele>
        <time>2015-06-06T12:52:32Z</time>
      </trkpt>
      <trkpt lat="43.81521" lon="3.7409">
        <ele>143.88534472075</ele>
        <time>2015-06-06T12:53:33Z</time>
      </trkpt>
      <trkpt lat="43.81516" lon="3.7409">
        <ele>143.88534472075</ele>
        <time>2015-06-06T12:53:39Z</time>
      </trkpt>
      <trkpt lat="43.81464" lon="3.74078">
        <ele>146.1811072274</ele>
        <time>2015-06-06T12:54:22Z</time>
      </trkpt>
      <trkpt lat="43.81459" lon="3.74076">
        <ele>146.1811072274</ele>
        <time>2015-06-06T12:54:31Z</time>
      </trkpt>
      <trkpt lat="43.81444" lon="3.74072">
        <ele>148.48041927279</ele>
        <time>2015-06-06T12:54:38Z</time>
      </trkpt>
      <trkpt lat="43.81417" lon="3.74067">
        <ele>150.71171959862</ele>
        <time>2015-06-06T12:55:08Z</time>
      </trkpt>
      <trkpt lat="43.8141" lon="3.74081">
        <ele>152.95303181571</ele>
        <time>2015-06-06T12:55:17Z</time>
      </trkpt>
      <trkpt lat="43.81406" lon="3.74084">
        <ele>152.95303181571</ele>
        <time>2015-06-06T12:55:22Z</time>
      </trkpt>
      <trkpt lat="43.81402" lon="3.7409">
        <ele>155.24786270089</ele>
        <time>2015-06-06T12:55:29Z</time>
      </trkpt>
      <trkpt lat="43.81401" lon="3.74091">
        <ele>155.24786270089</ele>
        <time>2015-06-06T12:55:32Z</time>
      </trkpt>
      <trkpt lat="43.81396" lon="3.74098">
        <ele>155.24786270089</ele>
        <time>2015-06-06T12:55:39Z</time>
      </trkpt>
      <trkpt lat="43.81395" lon="3.74099">
        <ele>157.57882938491</ele>
        <time>2015-06-06T12:55:42Z</time>
      </trkpt>
      <trkpt lat="43.81391" lon="3.74101">
        <ele>157.57882938491</ele>
        <time>2015-06-06T12:55:47Z</time>
      </trkpt>
      <trkpt lat="43.81372" lon="3.74107">
        <ele>160.07396990154</ele>
        <time>2015-06-06T12:56:12Z</time>
      </trkpt>
      <trkpt lat="43.81363" lon="3.74108">
        <ele>162.54898746689</ele>
        <time>2015-06-06T12:56:20Z</time>
      </trkpt>
      <trkpt lat="43.81362" lon="3.74108">
        <ele>162.54898746689</ele>
        <time>2015-06-06T12:56:22Z</time>
      </trkpt>
      <trkpt lat="43.81348" lon="3.74109">
        <ele>165.06395112589</ele>
        <time>2015-06-06T12:56:44Z</time>
      </trkpt>
      <trkpt lat="43.81329" lon="3.74129">
        <ele>167.67462453089</ele>
        <time>2015-06-06T12:56:57Z</time>
      </trkpt>
      <trkpt lat="43.81314" lon="3.74136">
        <ele>170.20207165026</ele>
        <time>2015-06-06T12:57:12Z</time>
      </trkpt>
      <trkpt lat="43.81306" lon="3.74138">
        <ele>170.20207165026</ele>
        <time>2015-06-06T12:57:19Z</time>
      </trkpt>
      <trkpt lat="43.81305" lon="3.74138">
        <ele>170.20207165026</ele>
        <time>2015-06-06T12:57:28Z</time>
      </trkpt>
      <trkpt lat="43.81257" lon="3.74178">
        <ele>172.61069869895</ele>
        <time>2015-06-06T12:58:18Z</time>
      </trkpt>
      <trkpt lat="43.81255" lon="3.74182">
        <ele>172.61069869895</ele>
        <time>2015-06-06T12:58:22Z</time>
      </trkpt>
      <trkpt lat="43.81251" lon="3.74184">
        <ele>172.61069869895</ele>
        <time>2015-06-06T12:58:27Z</time>
      </trkpt>
      <trkpt lat="43.81246" lon="3.74187">
        <ele>174.83932017902</ele>
        <time>2015-06-06T12:58:32Z</time>
      </trkpt>
      <trkpt lat="43.81207" lon="3.742">
        <ele>176.63029185761</ele>
        <time>2015-06-06T12:59:20Z</time>
      </trkpt>
      <trkpt lat="43.81206" lon="3.74199">
        <ele>176.63029185761</ele>
        <time>2015-06-06T12:59:22Z</time>
      </trkpt>
      <trkpt lat="43.81203" lon="3.742">
        <ele>176.63029185761</ele>
        <time>2015-06-06T12:59:27Z</time>
      </trkpt>
      <trkpt lat="43.81202" lon="3.74199">
        <ele>176.63029185761</ele>
        <time>2015-06-06T12:59:47Z</time>
      </trkpt>
      <trkpt lat="43.81202" lon="3.74199">
        <ele>176.63029185761</ele>
        <time>2015-06-06T12:59:52Z</time>
      </trkpt>
    </trkseg>
  </trk>
</gpx>